EA3GYL La Torregassa ES current weather conditions

sailwx.info

Wind from 214 at 5 knots gusting 9

Air temperature 22.2° C
Dewpoint 11.6° C

Last reported at 2015-May-29 15:50 UTC.
Time now 2015-May-29 16:19 UTC

Location: N 41°17' E 001°31'.
View on Google Maps.

See reports from other nearby stations

  
Tides and Currents Weather Stations Pressure Air Temp Water Temp Dewpoint Dewpoint Depression Visibility Wind Speed Wind Dir Waves Ship Positions
date/time (UTC)wind fromknots sea level pressurealtimeterstation pressurevisibilityair tempwater tempwave heightnotes
2015-May-29 15:50 214 5 gusting 9 22.2
2015-May-29 15:40 210 5 gusting 10 22.2
2015-May-29 15:30 190 6 gusting 11 23.3
2015-May-29 15:20 194 5 gusting 11 23.3
2015-May-29 15:10 221 4 gusting 8 23.3
2015-May-29 15:00 213 5 gusting 9 23.3
2015-May-29 14:50 196 6 gusting 10 23.3
2015-May-29 14:40 207 6 gusting 10 23.3
2015-May-29 14:30 219 6 gusting 10 24.4
2015-May-29 14:20 203 6 gusting 12 24.4
2015-May-29 14:10 197 6 gusting 13 23.9
2015-May-29 14:00 189 6 gusting 10 24.4
2015-May-29 13:50 184 6 gusting 12 24.4
2015-May-29 13:40 169 6 gusting 9 24.4
2015-May-29 13:30 182 6 gusting 11 24.4
2015-May-29 13:20 196 6 gusting 13 24.4
2015-May-29 13:10 185 5 gusting 12 25.6
2015-May-29 12:50 222 5 gusting 11 25.0
2015-May-29 12:30 182 6 gusting 10 24.4
2015-May-29 12:20 191 6 gusting 12 24.4
2015-May-29 12:10 203 6 gusting 11 23.9
2015-May-29 11:50 182 6 gusting 13 23.9
2015-May-29 11:40 195 6 gusting 13 23.9
2015-May-29 11:20 184 6 gusting 11 24.4
2015-May-29 11:00 158 5 gusting 12 24.4
2015-May-29 10:50 190 3 gusting 10 24.4
2015-May-29 10:40 192 3 gusting 8 24.4
2015-May-29 10:20 233 3 gusting 8 23.9
2015-May-29 10:10 207 4 gusting 10 23.9
2015-May-29 10:00 200 5 gusting 9 23.3
2015-May-29 09:50 190 6 gusting 11 23.3
2015-May-29 09:30 178 5 gusting 9 23.3
2015-May-29 09:20 160 5 gusting 9 23.3
2015-May-29 09:10 154 5 gusting 10 23.3
2015-May-29 09:00 189 4 gusting 10 22.8
2015-May-29 08:50 233 3 gusting 7 23.3
2015-May-29 08:40 237 2 gusting 7 22.8
2015-May-29 08:20 249 3 gusting 7 22.2
2015-May-29 08:10 234 4 gusting 8 21.7
2015-May-29 08:00 239 5 gusting 11 21.7
2015-May-29 07:50 244 4 gusting 9 21.1
2015-May-29 07:30 244 3 gusting 7 20.6
2015-May-28 22:40 276 16.1
2015-May-28 22:30 16.1
2015-May-28 22:20 15.6
2015-May-28 22:10 15.6
2015-May-28 22:00 15.6
2015-May-28 21:50 16.1
2015-May-28 21:40 16.1
2015-May-28 21:30 246 0 gusting 1 16.7
2015-May-28 21:20 252 0 gusting 2 16.7
2015-May-28 21:10 260 1 gusting 3 16.7
2015-May-28 21:00 256 2 gusting 2 16.7
2015-May-28 20:50 259 2 gusting 4 16.7
2015-May-28 20:40 259 1 gusting 4 17.2
2015-May-28 20:30 255 1 gusting 3 17.2
2015-May-28 20:20 259 2 gusting 4 17.2
2015-May-28 20:10 259 2 gusting 4 17.8
2015-May-28 20:00 260 2 gusting 6 17.8
2015-May-28 19:50 256 1 gusting 4 18.3
2015-May-28 19:40 255 3 gusting 6 18.3
2015-May-28 19:30 248 3 gusting 8 18.9
2015-May-28 19:20 247 3 gusting 6 18.9
2015-May-28 19:10 248 3 gusting 7 19.4
2015-May-28 19:00 247 4 gusting 7 19.4
2015-May-28 18:50 244 6 gusting 11 20.0
2015-May-28 18:40 237 6 gusting 10 20.6
2015-May-28 18:30 236 6 gusting 12 20.6
2015-May-28 18:20 242 6 gusting 13 20.6
2015-May-28 18:10 238 7 gusting 13 21.1
2015-May-28 18:00 240 7 gusting 13 21.1
2015-May-28 17:50 242 7 gusting 16 21.1
2015-May-28 17:40 242 6 gusting 13 21.7
2015-May-28 17:30 251 6 gusting 12 21.7
2015-May-28 17:20 246 6 gusting 12 22.2
2015-May-28 17:10 244 7 gusting 12 22.2
2015-May-28 17:00 236 7 gusting 13 22.2
2015-May-28 16:50 233 7 gusting 13 22.2
2015-May-28 16:40 235 7 gusting 14 22.2
2015-May-28 16:30 233 7 gusting 13 22.8
2015-May-28 16:20 233 8 gusting 14 22.8
2015-May-28 16:10 231 7 gusting 13 22.8
2015-May-28 16:00 235 6 gusting 13 22.8
2015-May-28 15:50 244 6 gusting 12 22.8
2015-May-28 15:40 229 6 gusting 13 22.8
2015-May-28 15:30 224 6 gusting 13 22.8
2015-May-28 15:20 234 6 gusting 13 22.8
2015-May-28 15:10 216 6 gusting 13 22.8
2015-May-28 15:00 230 6 gusting 11 22.8
2015-May-28 14:50 218 6 gusting 13 23.3
2015-May-28 14:00 194 6 gusting 13 23.3
2015-May-28 13:50 196 6 gusting 13 23.3
2015-May-28 13:40 216 6 gusting 13 23.9
2015-May-28 13:30 205 6 gusting 13 23.9
2015-May-28 13:20 200 6 gusting 12 23.9
2015-May-28 13:10 210 6 gusting 13 23.9
2015-May-28 13:00 193 6 gusting 12 23.9
2015-May-28 12:50 196 6 gusting 13 23.3
2015-May-28 12:40 203 6 gusting 13 23.9
2015-May-28 12:30 194 6 gusting 12 23.9
2015-May-28 12:20 178 6 gusting 11 23.9
2015-May-28 12:10 162 6 gusting 12 23.9
2015-May-28 12:00 168 5 gusting 11 23.9
2015-May-28 11:50 184 4 gusting 10 23.9
2015-May-28 11:40 182 4 gusting 9 23.9
2015-May-28 11:30 200 5 gusting 9 23.9
2015-May-28 11:20 167 5 gusting 9 23.9
2015-May-28 11:10 194 6 gusting 9 23.9
2015-May-28 11:00 182 6 gusting 11 23.9
2015-May-28 10:50 176 6 gusting 12 23.9
2015-May-28 10:40 182 6 gusting 12 23.3
2015-May-28 10:30 172 6 gusting 10 23.3
2015-May-28 10:20 178 5 gusting 11 23.9
2015-May-28 10:10 174 4 gusting 11 23.9
2015-May-28 10:00 195 3 gusting 9 23.9
2015-May-28 09:50 214 2 gusting 9 23.3
2015-May-28 09:40 208 3 gusting 10 23.3
2015-May-28 09:30 214 2 gusting 6 23.3
2015-May-28 09:20 231 2 gusting 7 22.8
2015-May-28 09:10 226 2 gusting 6 22.8
2015-May-28 09:00 233 2 gusting 5 22.2
2015-May-28 08:50 191 1 gusting 7 22.2
2015-May-28 08:40 230 1 gusting 6 21.7
2015-May-28 08:30 168 2 gusting 5 21.7
2015-May-28 08:20 185 2 gusting 6 21.7
2015-May-28 08:10 223 1 gusting 6 20.6
2015-May-28 08:00 243 1 gusting 3 20.6
2015-May-28 07:50 244 2 gusting 5 20.0
2015-May-28 07:40 224 2 gusting 5 19.4
2015-May-28 07:30 246 3 gusting 6 19.4
2015-May-28 07:20 247 3 gusting 5 18.9
2015-May-28 07:10 239 3 gusting 7 18.9
2015-May-28 07:00 248 2 gusting 6 18.3
2015-May-28 06:50 242 1 gusting 5 18.3
2015-May-28 06:40 188 0 gusting 3 18.3
2015-May-28 06:30 18.3
2015-May-28 06:20 17.8
2015-May-28 06:10 17.2
2015-May-28 06:00 18.3
2015-May-28 05:50 17.8
2015-May-28 05:40 16.7
2015-May-28 05:30 15.6
2015-May-28 05:20 15.0
2015-May-28 05:10 13.9
2015-May-28 05:00 13.9
2015-May-28 04:50 13.9
2015-May-28 04:40 13.3
2015-May-28 04:30 13.3
2015-May-28 04:20 13.3
2015-May-28 04:10 13.3
2015-May-28 04:00 13.3
2015-May-28 03:50 13.3
2015-May-28 03:40 13.3
2015-May-28 03:30 13.9
2015-May-28 03:20 13.9
2015-May-28 03:10 13.3
2015-May-28 03:00 13.9
2015-May-28 02:50 13.9
2015-May-28 02:40 13.9
2015-May-28 02:30 13.9
2015-May-28 02:20 13.9
2015-May-28 02:10 13.9
2015-May-28 02:00 14.4
2015-May-28 01:50 14.4
2015-May-28 01:40 15.0
2015-May-28 01:30 277 15.0
2015-May-28 01:20 284 0 gusting 2 15.0
2015-May-28 01:10 291 0 gusting 2 15.6
2015-May-28 01:00 284 0 gusting 1 15.6
2015-May-28 00:50 301 0 gusting 1 15.6
2015-May-28 00:40 299 0 gusting 2 15.6
2015-May-28 00:30 299 15.6
2015-May-28 00:20 291 0 gusting 1 15.6
2015-May-28 00:10 304 0 gusting 1 15.6
2015-May-28 00:00 15.6
2015-May-27 23:50 15.6
2015-May-27 23:40 15.6
2015-May-27 23:30 15.6
2015-May-27 23:20 15.6
2015-May-27 23:10 15.6
2015-May-27 23:00 334 15.6
2015-May-27 22:50 324 0 gusting 1 15.6
2015-May-27 22:40 332 0 gusting 1 16.1
2015-May-27 22:30 345 16.1
2015-May-27 22:20 16.1
2015-May-27 22:10 16.1
2015-May-27 22:00 16.1
2015-May-27 21:50 16.1
2015-May-27 21:40 16.7
2015-May-27 21:30 16.7
2015-May-27 21:20 16.7
2015-May-27 21:10 16.7
2015-May-27 21:00 16.7
2015-May-27 20:50 16.7
2015-May-27 20:40 16.7
2015-May-27 20:30 16.7
2015-May-27 20:20 16.7
2015-May-27 20:10 17.2
2015-May-27 19:50 16.7
2015-May-27 19:40 125 0 gusting 2 16.7
2015-May-27 19:30 135 0 gusting 2 17.2
2015-May-27 19:20 151 1 gusting 3 17.2
2015-May-27 19:10 148 0 gusting 3 17.8
2015-May-27 19:00 159 1 gusting 3 17.8
2015-May-27 18:50 154 2 gusting 4 18.3
2015-May-27 18:40 155 2 gusting 5 18.9
2015-May-27 18:30 143 2 gusting 6 18.9
2015-May-27 18:20 152 2 gusting 5 19.4
2015-May-27 18:10 150 2 gusting 6 19.4
2015-May-27 18:00 150 2 gusting 6 20.0
2015-May-27 17:50 144 3 gusting 6 20.0
2015-May-27 17:40 132 2 gusting 6 20.0
2015-May-27 17:30 127 2 gusting 5 20.0
2015-May-27 17:20 160 2 gusting 6 20.6
2015-May-27 17:10 153 3 gusting 6 20.6
2015-May-27 17:00 153 3 gusting 6 20.6
2015-May-27 16:50 172 3 gusting 8 21.1
2015-May-27 16:40 187 3 gusting 8 21.1
2015-May-27 16:30 149 3 gusting 9 21.1
2015-May-27 16:20 167 4 gusting 6 21.1
2015-May-27 16:10 151 4 gusting 9 21.1
2015-May-27 16:00 156 5 gusting 9 21.1